createdAt,value
2022-07-29T00:00:19.359Z,18.75
2022-07-29T00:03:07.479Z,20.45
2022-07-29T00:05:56.202Z,22.50
2022-07-29T00:08:44.214Z,23.23
2022-07-29T00:11:32.237Z,22.85
2022-07-29T00:14:21.700Z,21.63
2022-07-29T00:17:09.776Z,21.88
2022-07-29T00:19:58.094Z,21.90
2022-07-29T00:22:46.119Z,20.45
2022-07-29T00:25:34.078Z,22.70
2022-07-29T00:28:22.112Z,24.10
2022-07-29T00:31:11.735Z,24.98
2022-07-29T00:33:59.829Z,24.83
2022-07-29T00:36:46.914Z,28.50
2022-07-29T00:39:34.893Z,26.10
2022-07-29T00:42:22.915Z,27.38
2022-07-29T00:45:11.628Z,34.47
2022-07-29T00:48:01.065Z,32.58
2022-07-29T00:50:50.820Z,39.10
2022-07-29T00:53:39.823Z,41.30
2022-07-29T00:56:27.983Z,47.92
2022-07-29T00:59:15.984Z,49.08
2022-07-29T01:02:04.469Z,50.17
2022-07-29T01:04:54.151Z,49.15
2022-07-29T01:07:43.226Z,53.38
2022-07-29T01:10:32.144Z,53.20
2022-07-29T01:13:21.092Z,51.97
2022-07-29T01:16:16.528Z,55.08
2022-07-29T01:19:14.995Z,53.47
2022-07-29T01:22:23.621Z,55.90
2022-07-29T01:25:34.481Z,57.70
2022-07-29T01:29:08.672Z,57.60
2022-07-29T01:32:01.384Z,59.53
2022-07-29T01:34:54.282Z,65.25
2022-07-29T01:37:49.232Z,72.55
2022-07-29T01:40:42.562Z,72.13
2022-07-29T01:43:38.238Z,73.32
2022-07-29T01:46:33.726Z,75.15
2022-07-29T01:49:26.146Z,74.95
2022-07-29T01:52:20.950Z,81.75
2022-07-29T01:55:14.473Z,82.80
2022-07-29T01:58:05.226Z,86.00
2022-07-29T02:00:54.247Z,88.03
2022-07-29T02:03:46.778Z,84.03
2022-07-29T02:06:37.531Z,84.35
2022-07-29T02:09:27.659Z,85.93
2022-07-29T02:12:18.562Z,84.68
2022-07-29T02:15:11.460Z,83.78
2022-07-29T02:18:03.851Z,84.05
2022-07-29T02:20:56.853Z,80.72
2022-07-29T02:23:50.698Z,77.70
2022-07-29T02:26:42.072Z,75.30
2022-07-29T02:29:32.122Z,72.35
2022-07-29T02:32:23.507Z,68.13
2022-07-29T02:35:15.702Z,63.83
2022-07-29T02:38:23.680Z,57.38
2022-07-29T02:41:15.435Z,46.15
2022-07-29T02:44:07.153Z,44.58
2022-07-29T02:47:01.315Z,44.30
2022-07-29T02:49:55.964Z,43.50
2022-07-29T02:52:46.962Z,37.47
2022-07-29T02:55:42.101Z,35.65
2022-07-29T02:58:33.091Z,34.70
2022-07-29T03:01:24.233Z,33.03
2022-07-29T03:04:15.068Z,31.05
2022-07-29T03:07:05.499Z,26.88
2022-07-29T03:09:54.707Z,25.13
2022-07-29T03:12:44.623Z,27.20
2022-07-29T03:15:33.790Z,25.25
2022-07-29T03:18:22.231Z,25.35
2022-07-29T03:21:10.364Z,23.90
2022-07-29T03:23:58.330Z,24.80
2022-07-29T03:26:46.439Z,24.00
2022-07-29T03:29:35.888Z,24.85
2022-07-29T03:32:25.303Z,23.25
2022-07-29T03:35:13.775Z,24.48
2022-07-29T03:38:01.809Z,22.73
2022-07-29T03:40:56.015Z,23.35
2022-07-29T03:43:49.279Z,23.80
2022-07-29T03:46:41.643Z,23.67
2022-07-29T03:49:30.162Z,23.75
2022-07-29T03:52:18.555Z,26.15
2022-07-29T03:55:07.949Z,24.45
2022-07-29T03:57:58.783Z,25.83
2022-07-29T04:00:48.220Z,22.30
2022-07-29T04:03:38.798Z,24.65
2022-07-29T04:06:27.595Z,22.90
2022-07-29T04:09:16.056Z,24.38
2022-07-29T04:12:04.660Z,25.02
2022-07-29T04:14:52.741Z,25.83
2022-07-29T04:17:40.781Z,24.80
2022-07-29T04:20:30.153Z,25.45
2022-07-29T04:23:18.335Z,26.55
2022-07-29T04:26:07.213Z,24.73
2022-07-29T04:28:56.819Z,25.48
2022-07-29T04:31:45.487Z,24.50
2022-07-29T04:34:33.611Z,26.60
2022-07-29T04:37:22.970Z,26.33
2022-07-29T04:40:12.752Z,28.90
2022-07-29T04:43:01.675Z,27.90
2022-07-29T04:45:53.755Z,31.33
2022-07-29T04:48:41.883Z,35.05
2022-07-29T04:51:29.978Z,37.50
2022-07-29T04:54:19.688Z,39.80
2022-07-29T04:57:07.879Z,39.38
2022-07-29T04:59:55.891Z,42.08
2022-07-29T05:02:44.015Z,43.05
2022-07-29T05:05:32.063Z,45.40
2022-07-29T05:08:20.126Z,47.78
2022-07-29T05:11:12.546Z,46.15
2022-07-29T05:14:01.546Z,47.13
2022-07-29T05:16:51.958Z,47.22
2022-07-29T05:19:40.039Z,47.85
2022-07-29T05:22:27.991Z,45.22
2022-07-29T05:25:16.006Z,40.65
2022-07-29T05:28:05.800Z,38.30
2022-07-29T05:30:53.866Z,38.17
2022-07-29T05:33:42.052Z,41.88
2022-07-29T05:36:30.118Z,40.47
2022-07-29T05:39:18.131Z,40.92
2022-07-29T05:42:10.296Z,39.97
2022-07-29T05:44:59.938Z,42.15
2022-07-29T05:47:47.944Z,41.00
2022-07-29T05:50:35.940Z,41.20
2022-07-29T05:53:36.062Z,42.28
2022-07-29T05:56:24.373Z,44.92
2022-07-29T05:59:17.342Z,44.05
2022-07-29T06:02:07.753Z,45.03
2022-07-29T06:04:55.819Z,42.47
2022-07-29T06:07:49.981Z,40.17
2022-07-29T06:10:39.163Z,41.75
2022-07-29T06:13:27.229Z,40.80
2022-07-29T06:16:15.834Z,40.97
2022-07-29T06:19:19.392Z,39.55
2022-07-29T06:22:07.415Z,41.03
2022-07-29T06:24:55.398Z,40.45
2022-07-29T06:27:43.451Z,37.70
2022-07-29T06:30:31.671Z,39.38
2022-07-29T06:33:20.093Z,38.42
2022-07-29T06:36:10.409Z,37.35
2022-07-29T06:39:00.441Z,38.30
2022-07-29T06:41:51.934Z,37.50
2022-07-29T06:44:39.975Z,36.72
2022-07-29T06:47:28.073Z,36.45
2022-07-29T06:50:16.364Z,37.47
2022-07-29T06:53:06.789Z,33.70
2022-07-29T06:55:54.973Z,32.88
2022-07-29T06:58:42.951Z,33.80
2022-07-29T07:01:31.093Z,33.33
2022-07-29T07:04:19.396Z,33.65
2022-07-29T07:07:07.689Z,33.88
2022-07-29T07:09:57.087Z,32.08
2022-07-29T07:12:45.124Z,32.20
2022-07-29T07:15:39.161Z,34.50
2022-07-29T07:18:28.918Z,35.45
2022-07-29T07:21:19.178Z,24.40
2022-07-29T07:24:08.451Z,18.38
2022-07-29T07:26:57.826Z,17.17
2022-07-29T07:29:45.825Z,16.98
2022-07-29T07:32:33.927Z,16.02
2022-07-29T07:35:21.982Z,15.50
2022-07-29T07:38:10.165Z,16.40
2022-07-29T07:40:58.424Z,15.20
2022-07-29T07:43:47.849Z,11.13
2022-07-29T07:46:36.044Z,9.60
2022-07-29T07:49:26.505Z,8.65
2022-07-29T07:52:14.916Z,7.95
2022-07-29T07:55:02.991Z,7.72
2022-07-29T07:57:51.113Z,7.55
2022-07-29T08:00:40.539Z,8.40
2022-07-29T08:03:28.602Z,9.35
2022-07-29T08:06:17.021Z,10.02
2022-07-29T08:09:27.747Z,11.02
2022-07-29T08:12:13.739Z,12.45
2022-07-29T08:15:01.738Z,17.58
2022-07-29T08:17:51.166Z,18.13
2022-07-29T08:20:39.934Z,18.38
2022-07-29T08:23:45.450Z,18.63
2022-07-29T08:26:36.831Z,17.67
2022-07-29T08:29:24.993Z,18.13
2022-07-29T08:32:13.272Z,19.27
2022-07-29T08:35:02.774Z,19.63
2022-07-29T08:37:51.438Z,20.95
2022-07-29T08:40:39.714Z,22.83
2022-07-29T08:43:27.955Z,23.23
2022-07-29T08:46:16.233Z,22.90
2022-07-29T08:49:04.497Z,23.27
2022-07-29T08:51:55.839Z,23.30
2022-07-29T08:54:45.897Z,21.05
2022-07-29T08:57:35.395Z,21.30
2022-07-29T09:00:27.532Z,19.63
2022-07-29T09:03:20.268Z,17.92
2022-07-29T09:06:08.424Z,16.80
2022-07-29T09:09:00.721Z,17.95
2022-07-29T09:11:49.363Z,18.17
2022-07-29T09:14:37.371Z,18.67
2022-07-29T09:17:43.781Z,18.77
2022-07-29T09:20:51.899Z,18.42
2022-07-29T09:23:40.651Z,18.73
2022-07-29T09:26:31.877Z,18.02
2022-07-29T09:29:21.855Z,18.00
2022-07-29T09:32:12.394Z,19.00
2022-07-29T09:35:17.320Z,19.75
2022-07-29T09:38:12.967Z,18.48
2022-07-29T09:41:05.439Z,19.38
2022-07-29T09:43:59.836Z,19.48
2022-07-29T09:46:59.110Z,18.88
2022-07-29T09:49:58.727Z,18.20
2022-07-29T09:52:48.801Z,18.88
2022-07-29T09:55:48.809Z,19.45
2022-07-29T09:58:36.955Z,17.70
2022-07-29T10:01:31.040Z,18.13
2022-07-29T10:04:19.845Z,18.23
2022-07-29T10:07:07.976Z,16.58
2022-07-29T10:09:57.841Z,15.95
2022-07-29T10:12:51.485Z,13.32
2022-07-29T10:15:41.806Z,13.23
2022-07-29T10:18:32.022Z,14.00
2022-07-29T10:21:34.838Z,12.65
2022-07-29T10:24:25.531Z,12.07
2022-07-29T10:27:13.685Z,11.45
2022-07-29T10:30:02.597Z,11.50
2022-07-29T10:33:11.219Z,11.48
2022-07-29T10:36:17.393Z,10.85
2022-07-29T10:39:22.401Z,10.73
2022-07-29T10:42:20.110Z,10.85
2022-07-29T10:45:08.848Z,11.02
2022-07-29T10:48:07.940Z,11.52
2022-07-29T10:50:58.237Z,11.70
2022-07-29T10:53:52.106Z,12.43
2022-07-29T10:56:42.213Z,12.52
2022-07-29T11:02:50.147Z,11.93
2022-07-29T11:05:55.483Z,11.73
2022-07-29T11:08:43.853Z,10.82
2022-07-29T11:11:35.197Z,9.45
2022-07-29T11:14:56.660Z,9.15
2022-07-29T11:18:06.557Z,8.65
2022-07-29T11:20:55.095Z,8.98
2022-07-29T11:23:44.853Z,9.15
2022-07-29T11:26:35.242Z,8.07
2022-07-29T11:29:24.020Z,7.72
2022-07-29T11:32:18.126Z,7.25
2022-07-29T11:35:17.435Z,7.10
2022-07-29T11:38:27.852Z,7.15
2022-07-29T11:41:27.297Z,7.30
2022-07-29T11:44:17.983Z,7.45
2022-07-29T11:47:06.930Z,7.28
2022-07-29T11:49:57.215Z,7.90
2022-07-29T11:52:49.755Z,7.50
2022-07-29T11:55:51.383Z,7.03
2022-07-29T11:58:40.421Z,7.10
2022-07-29T12:01:30.783Z,6.78
2022-07-29T12:04:21.322Z,6.05
2022-07-29T12:07:11.100Z,6.00
2022-07-29T12:10:05.206Z,5.78
2022-07-29T12:12:54.518Z,6.00
2022-07-29T12:15:47.118Z,4.97
2022-07-29T12:18:36.824Z,5.30
2022-07-29T12:21:25.767Z,4.93
2022-07-29T12:24:13.931Z,4.90
2022-07-29T12:27:02.665Z,5.10
2022-07-29T12:29:58.344Z,4.85
2022-07-29T12:32:48.968Z,5.00
2022-07-29T12:35:38.514Z,5.05
2022-07-29T12:38:27.355Z,4.90
2022-07-29T12:41:15.649Z,4.93
2022-07-29T12:44:04.088Z,5.10
2022-07-29T12:47:03.967Z,5.10
2022-07-29T12:50:08.611Z,5.10
2022-07-29T12:53:10.955Z,4.90
2022-07-29T12:56:07.995Z,5.07
2022-07-29T12:59:16.765Z,5.00
2022-07-29T13:02:05.018Z,5.03
2022-07-29T13:04:58.666Z,5.25
2022-07-29T13:07:55.463Z,5.38
2022-07-29T13:10:46.623Z,5.47
2022-07-29T13:13:34.670Z,5.50
2022-07-29T13:16:22.725Z,5.72
2022-07-29T13:19:14.311Z,5.78
2022-07-29T13:22:02.304Z,6.10
2022-07-29T13:24:52.158Z,5.68
2022-07-29T13:27:41.910Z,6.13
2022-07-29T13:30:30.141Z,6.05
2022-07-29T13:33:18.607Z,5.90
2022-07-29T13:36:07.013Z,6.00
2022-07-29T13:38:55.012Z,5.82
2022-07-29T13:41:43.441Z,5.80
2022-07-29T13:44:32.883Z,5.75
2022-07-29T13:47:21.105Z,5.35
2022-07-29T13:50:11.385Z,5.60
2022-07-29T13:52:59.398Z,5.30
2022-07-29T13:55:47.426Z,4.75
2022-07-29T13:58:37.795Z,4.78
2022-07-29T14:01:28.007Z,4.82
2022-07-29T14:04:16.320Z,4.75
2022-07-29T14:07:04.613Z,4.80
2022-07-29T14:09:52.713Z,5.10
2022-07-29T14:12:42.796Z,5.00
2022-07-29T14:15:30.817Z,4.97
2022-07-29T14:18:20.149Z,4.88
2022-07-29T14:21:08.170Z,5.00
2022-07-29T14:23:56.461Z,5.38
2022-07-29T14:26:44.484Z,5.38
2022-07-29T14:29:37.294Z,5.20
2022-07-29T14:32:25.924Z,5.32
2022-07-29T14:35:15.671Z,5.70
2022-07-29T14:38:03.910Z,5.80
2022-07-29T14:40:51.927Z,6.28
2022-07-29T14:43:39.918Z,6.20
2022-07-29T14:46:28.303Z,5.72
2022-07-29T14:49:16.415Z,5.68
2022-07-29T14:52:06.893Z,5.60
2022-07-29T14:54:54.907Z,5.68
2022-07-29T14:57:42.925Z,6.05
2022-07-29T15:00:33.167Z,5.80
2022-07-29T15:03:23.743Z,5.80
2022-07-29T15:06:12.540Z,5.80
2022-07-29T15:09:01.935Z,6.03
2022-07-29T15:11:49.943Z,6.05
2022-07-29T15:14:37.993Z,6.10
2022-07-29T15:17:26.075Z,6.05
2022-07-29T15:20:14.613Z,5.95
2022-07-29T15:23:02.699Z,6.07
2022-07-29T15:25:52.077Z,6.30
2022-07-29T15:28:41.054Z,5.63
2022-07-29T15:31:29.486Z,5.90
2022-07-29T15:34:17.756Z,5.53
2022-07-29T15:37:06.518Z,5.70
2022-07-29T15:39:59.704Z,5.47
2022-07-29T15:42:49.356Z,5.47
2022-07-29T15:45:40.412Z,6.28
2022-07-29T15:48:28.772Z,5.40
2022-07-29T15:51:17.318Z,5.50
2022-07-29T15:54:06.197Z,5.57
2022-07-29T15:56:54.437Z,6.28
2022-07-29T15:59:43.778Z,5.30
2022-07-29T16:02:31.782Z,5.50
2022-07-29T16:05:19.871Z,5.57
2022-07-29T16:08:07.946Z,5.50
2022-07-29T16:10:55.974Z,5.20
2022-07-29T16:13:44.026Z,5.05
2022-07-29T16:16:33.775Z,5.18
2022-07-29T16:19:21.805Z,5.70
2022-07-29T16:22:09.961Z,5.85
2022-07-29T16:24:57.993Z,6.03
2022-07-29T16:27:46.023Z,6.53
2022-07-29T16:30:34.195Z,6.72
2022-07-29T16:33:23.665Z,20.45
2022-07-29T16:36:13.203Z,42.55
2022-07-29T16:39:04.911Z,56.47
2022-07-29T16:41:54.953Z,71.10
2022-07-29T16:44:46.356Z,90.70
2022-07-29T16:47:34.529Z,122.93
2022-07-29T16:50:25.522Z,159.00
2022-07-29T16:53:14.242Z,188.80
2022-07-29T16:56:02.872Z,229.07
2022-07-29T16:58:50.915Z,225.18
2022-07-29T17:01:39.089Z,246.68
2022-07-29T17:04:27.461Z,243.60
2022-07-29T17:07:16.883Z,277.25
2022-07-29T17:10:07.980Z,258.23
2022-07-29T17:12:56.133Z,266.60
2022-07-29T17:15:44.432Z,281.98
2022-07-29T17:18:32.479Z,306.60
2022-07-29T17:21:20.712Z,311.48
2022-07-29T17:24:10.326Z,338.58
2022-07-29T17:26:58.773Z,358.85
2022-07-29T17:29:47.471Z,371.65
2022-07-29T17:32:38.488Z,369.25
2022-07-29T17:35:44.273Z,355.80
2022-07-29T17:38:32.282Z,364.65
2022-07-29T17:41:22.195Z,348.20
2022-07-29T17:44:10.317Z,353.30
2022-07-29T17:46:58.671Z,366.25
2022-07-29T17:49:47.235Z,352.77
2022-07-29T17:52:35.300Z,351.35
2022-07-29T17:55:23.285Z,362.80
2022-07-29T17:58:12.986Z,352.02
2022-07-29T18:01:01.303Z,348.23
2022-07-29T18:03:50.016Z,339.23
2022-07-29T18:06:38.251Z,352.05
2022-07-29T18:09:26.222Z,346.65
2022-07-29T18:12:14.364Z,339.25
2022-07-29T18:15:04.066Z,367.85
2022-07-29T18:17:57.663Z,351.52
2022-07-29T18:20:46.086Z,350.67
2022-07-29T18:23:34.291Z,347.48
2022-07-29T18:26:23.333Z,340.10
2022-07-29T18:29:18.447Z,340.35
2022-07-29T18:32:08.493Z,351.48
2022-07-29T18:34:56.493Z,319.48
2022-07-29T18:38:01.109Z,334.70
2022-07-29T18:40:50.784Z,324.05
2022-07-29T18:43:38.885Z,346.08
2022-07-29T18:46:27.071Z,334.77
2022-07-29T18:49:16.496Z,340.00
2022-07-29T18:52:05.056Z,336.95
2022-07-29T18:54:53.161Z,325.45
2022-07-29T18:57:56.289Z,330.40
2022-07-29T19:00:44.928Z,332.17
2022-07-29T19:03:33.005Z,328.27
2022-07-29T19:06:25.595Z,326.58
2022-07-29T19:09:14.176Z,323.60
2022-07-29T19:12:03.797Z,327.58
2022-07-29T19:14:51.888Z,312.77
2022-07-29T19:17:40.221Z,328.80
2022-07-29T19:20:28.378Z,308.67
2022-07-29T19:23:18.404Z,324.88
2022-07-29T19:26:06.585Z,301.73
2022-07-29T19:28:56.442Z,310.25
2022-07-29T19:31:44.754Z,321.92
2022-07-29T19:34:33.012Z,311.02
2022-07-29T19:37:21.025Z,313.73
2022-07-29T19:40:12.127Z,321.83
2022-07-29T19:43:00.693Z,319.65
2022-07-29T19:45:49.271Z,310.25
2022-07-29T19:48:37.806Z,319.45
2022-07-29T19:51:25.890Z,317.92
2022-07-29T19:54:15.529Z,305.83
2022-07-29T19:57:05.242Z,321.42
2022-07-29T19:59:53.197Z,308.98
2022-07-29T20:02:42.824Z,308.58
2022-07-29T20:05:31.101Z,299.27
2022-07-29T20:08:19.348Z,323.30
2022-07-29T20:11:07.696Z,308.33
2022-07-29T20:13:57.053Z,311.20
2022-07-29T20:16:45.532Z,306.73
2022-07-29T20:19:33.593Z,325.90
2022-07-29T20:22:21.711Z,315.20
2022-07-29T20:25:11.808Z,319.23
2022-07-29T20:27:59.992Z,308.75
2022-07-29T20:30:49.399Z,303.58
2022-07-29T20:33:37.665Z,297.90
2022-07-29T20:36:25.825Z,300.38
2022-07-29T20:39:13.840Z,301.75
2022-07-29T20:42:02.069Z,303.25
2022-07-29T20:44:51.064Z,299.65
2022-07-29T20:47:40.451Z,309.80
2022-07-29T20:50:28.652Z,295.42
2022-07-29T20:53:18.960Z,301.77
2022-07-29T20:56:07.617Z,296.00
2022-07-29T20:58:55.790Z,308.77
2022-07-29T21:01:43.823Z,302.35
2022-07-29T21:04:33.292Z,290.10
2022-07-29T21:07:21.256Z,283.33
2022-07-29T21:10:09.750Z,287.67
2022-07-29T21:12:57.754Z,307.52
2022-07-29T21:15:49.155Z,324.73
2022-07-29T21:18:37.855Z,307.67
2022-07-29T21:21:27.682Z,315.58
2022-07-29T21:24:15.784Z,308.38
2022-07-29T21:27:21.066Z,316.42
2022-07-29T21:30:10.727Z,311.70
2022-07-29T21:32:59.180Z,298.25
2022-07-29T21:36:14.921Z,314.55
2022-07-29T21:38:56.591Z,303.42
2022-07-29T21:41:44.654Z,310.45
2022-07-29T21:44:32.693Z,322.55
2022-07-29T21:47:20.763Z,303.33
2022-07-29T21:50:09.385Z,308.35
2022-07-29T21:52:57.377Z,294.83
2022-07-29T21:55:50.430Z,306.35
2022-07-29T21:58:38.441Z,306.27
2022-07-29T22:01:26.769Z,300.63
2022-07-29T22:04:15.111Z,300.83
2022-07-29T22:07:03.623Z,285.98
2022-07-29T22:09:51.909Z,283.35
2022-07-29T22:12:41.377Z,308.90
2022-07-29T22:15:30.204Z,303.00
2022-07-29T22:18:20.533Z,304.25
2022-07-29T22:21:09.509Z,292.38
2022-07-29T22:23:57.525Z,296.02
2022-07-29T22:26:45.611Z,295.80
2022-07-29T22:29:34.968Z,288.17
2022-07-29T22:32:23.057Z,286.77
2022-07-29T22:35:11.535Z,305.25
2022-07-29T22:37:59.547Z,291.90
2022-07-29T22:40:48.771Z,294.48
2022-07-29T22:43:39.587Z,293.13
2022-07-29T22:46:29.075Z,297.35
2022-07-29T22:49:17.095Z,292.85
2022-07-29T22:52:05.480Z,289.73
2022-07-29T22:54:53.522Z,284.48
2022-07-29T22:57:41.757Z,289.88
2022-07-29T23:00:29.794Z,284.83
2022-07-29T23:03:19.433Z,288.15
2022-07-29T23:06:08.035Z,291.52
2022-07-29T23:08:56.025Z,294.70
2022-07-29T23:11:44.042Z,297.15
2022-07-29T23:14:32.534Z,289.25
2022-07-29T23:17:20.599Z,289.88
2022-07-29T23:20:10.517Z,296.63
2022-07-29T23:22:58.513Z,279.23
2022-07-29T23:25:46.551Z,274.42
2022-07-29T23:28:34.531Z,289.90
2022-07-29T23:31:22.541Z,301.85
2022-07-29T23:34:10.586Z,323.02
2022-07-29T23:37:00.198Z,311.52
2022-07-29T23:39:48.467Z,309.80
2022-07-29T23:42:36.480Z,308.42
2022-07-29T23:45:32.499Z,295.05
2022-07-29T23:48:32.766Z,279.02
2022-07-29T23:51:20.896Z,286.73
2022-07-29T23:54:10.339Z,279.75
2022-07-29T23:56:59.651Z,296.50
2022-07-29T23:59:47.856Z,295.30
